createdAt,value
2018-12-26T00:03:27.404Z,101531.20
2018-12-26T00:06:16.135Z,101535.36
2018-12-26T00:09:25.755Z,101544.28
2018-12-26T00:12:14.454Z,101537.82
2018-12-26T00:15:03.172Z,101530.72
2018-12-26T00:17:51.889Z,101524.63
2018-12-26T00:20:40.624Z,101523.91
2018-12-26T00:23:29.715Z,101524.05
2018-12-26T00:26:18.424Z,101529.82
2018-12-26T00:29:07.140Z,101534.63
2018-12-26T00:31:55.917Z,101530.06
2018-12-26T00:34:44.711Z,101517.61
2018-12-26T00:37:33.500Z,101514.03
2018-12-26T00:40:22.200Z,101526.59
2018-12-26T00:43:10.962Z,101534.91
2018-12-26T00:49:09.559Z,101528.91
2018-12-26T00:51:58.261Z,101529.00
2018-12-26T00:55:06.103Z,101528.10
2018-12-26T00:57:54.810Z,101523.64
2018-12-26T01:00:24.188Z,101524.73
2018-12-26T01:03:12.960Z,101527.69
2018-12-26T01:06:01.667Z,101526.38
2018-12-26T01:08:50.388Z,101520.44
2018-12-26T01:11:39.110Z,101510.75
2018-12-26T01:14:27.830Z,101510.19
2018-12-26T01:17:16.548Z,101514.91
2018-12-26T01:20:05.818Z,101516.38
2018-12-26T01:22:54.533Z,101517.48
2018-12-26T01:25:43.274Z,101514.87
2018-12-26T01:28:24.659Z,101518.40
2018-12-26T01:31:13.366Z,101522.75
2018-12-26T01:33:42.752Z,101516.73
2018-12-26T01:36:31.447Z,101513.45
2018-12-26T01:39:20.158Z,101514.53
2018-12-26T01:42:08.884Z,101520.79
2018-12-26T01:44:57.639Z,101517.72
2018-12-26T01:47:46.345Z,101509.73
2018-12-26T01:50:35.071Z,101501.81
2018-12-26T01:53:23.782Z,101499.69
2018-12-26T01:56:12.493Z,101492.40
2018-12-26T01:59:01.199Z,101489.69
2018-12-26T02:01:49.946Z,101490.34
2018-12-26T02:04:38.651Z,101493.08
2018-12-26T02:07:27.371Z,101494.73
2018-12-26T02:10:35.409Z,101486.36
2018-12-26T02:13:24.117Z,101487.70
2018-12-26T02:16:12.892Z,101487.92
2018-12-26T02:19:01.599Z,101482.78
2018-12-26T02:21:50.319Z,101473.70
2018-12-26T02:24:39.028Z,101480.03
2018-12-26T02:27:20.606Z,101477.22
2018-12-26T02:30:09.386Z,101476.36
2018-12-26T02:32:58.115Z,101472.94
2018-12-26T02:35:46.811Z,101470.58
2018-12-26T02:38:35.519Z,101471.05
2018-12-26T02:41:24.238Z,101471.58
2018-12-26T02:44:12.946Z,101460.80
2018-12-26T02:47:02.356Z,101463.53
2018-12-26T02:49:51.067Z,101464.45
2018-12-26T02:52:39.810Z,101456.91
2018-12-26T02:55:28.507Z,101453.61
2018-12-26T02:58:17.366Z,101451.88
2018-12-26T03:01:06.027Z,101451.39
2018-12-26T03:03:54.746Z,101449.70
2018-12-26T03:06:43.479Z,101449.99
2018-12-26T03:09:12.845Z,101441.92
2018-12-26T03:12:01.546Z,101442.66
2018-12-26T03:14:50.260Z,101441.78
2018-12-26T03:17:39.005Z,101443.87
2018-12-26T03:20:27.713Z,101443.97
2018-12-26T03:23:16.440Z,101438.78
2018-12-26T03:26:05.418Z,101438.53
2018-12-26T03:28:47.278Z,101441.09
2018-12-26T03:31:35.991Z,101442.41
2018-12-26T03:34:24.714Z,101445.27
2018-12-26T03:37:13.708Z,101449.80
2018-12-26T03:40:02.647Z,101442.13
2018-12-26T03:42:51.446Z,101436.10
2018-12-26T03:45:40.159Z,101435.55
2018-12-26T03:48:29.513Z,101442.54
2018-12-26T03:51:18.452Z,101442.88
2018-12-26T03:54:07.238Z,101442.66
2018-12-26T03:57:05.551Z,101437.78
2018-12-26T03:59:46.463Z,101444.91
2018-12-26T04:02:35.185Z,101443.80
2018-12-26T04:05:24.206Z,101442.54
2018-12-26T04:08:13.056Z,101442.55
2018-12-26T04:11:02.005Z,101441.69
2018-12-26T04:13:50.920Z,101434.52
2018-12-26T04:16:39.639Z,101425.33
2018-12-26T04:19:28.094Z,101428.45
2018-12-26T04:22:16.854Z,101427.91
2018-12-26T04:25:05.630Z,101432.14
2018-12-26T04:27:46.891Z,101423.61
2018-12-26T04:30:35.914Z,101420.37
2018-12-26T04:33:05.803Z,101428.06
2018-12-26T04:35:55.524Z,101425.11
2018-12-26T04:38:44.237Z,101420.34
2018-12-26T04:41:32.938Z,101416.78
2018-12-26T04:44:21.644Z,101422.42
2018-12-26T04:47:10.678Z,101418.22
2018-12-26T04:49:59.382Z,101426.50
2018-12-26T04:52:48.333Z,101424.94
2018-12-26T04:55:17.714Z,101421.64
2018-12-26T04:58:06.449Z,101424.63
2018-12-26T05:00:55.160Z,101423.76
2018-12-26T05:03:43.867Z,101426.50
2018-12-26T05:06:32.576Z,101420.62
2018-12-26T05:09:21.296Z,101425.80
2018-12-26T05:12:10.079Z,101425.70
2018-12-26T05:17:47.784Z,101422.28
2018-12-26T05:20:36.479Z,101425.12
2018-12-26T05:23:25.203Z,101420.59
2018-12-26T05:26:13.917Z,101422.05
2018-12-26T05:28:55.176Z,101423.94
2018-12-26T05:31:43.915Z,101422.64
2018-12-26T05:34:32.620Z,101425.31
2018-12-26T05:37:21.346Z,101420.25
2018-12-26T05:40:10.056Z,101422.76
2018-12-26T05:42:59.096Z,101430.59
2018-12-26T05:45:48.599Z,101428.28
2018-12-26T05:48:37.307Z,101424.59
2018-12-26T05:51:26.021Z,101426.96
2018-12-26T05:54:14.733Z,101431.09
2018-12-26T05:57:03.554Z,101427.25
2018-12-26T05:59:52.267Z,101427.89
2018-12-26T06:05:55.665Z,101427.05
2018-12-26T06:08:44.362Z,101427.13
2018-12-26T06:11:33.085Z,101431.66
2018-12-26T06:14:22.409Z,101434.27
2018-12-26T06:17:11.110Z,101435.77
2018-12-26T06:19:59.823Z,101429.87
2018-12-26T06:22:48.543Z,101433.09
2018-12-26T06:25:37.238Z,101430.44
2018-12-26T06:28:19.062Z,101430.21
2018-12-26T06:31:07.771Z,101427.99
2018-12-26T06:33:56.493Z,101424.42
2018-12-26T06:36:45.210Z,101426.98
2018-12-26T06:39:15.943Z,101426.37
2018-12-26T06:42:05.073Z,101428.41
2018-12-26T06:44:53.786Z,101423.79
2018-12-26T06:47:42.551Z,101418.20
2018-12-26T06:50:31.668Z,101418.94
2018-12-26T06:53:20.372Z,101414.11
2018-12-26T06:56:09.086Z,101420.41
2018-12-26T06:58:58.132Z,101417.07
2018-12-26T07:01:46.829Z,101416.81
2018-12-26T07:04:35.551Z,101424.19
2018-12-26T07:07:24.255Z,101423.14
2018-12-26T07:10:15.373Z,101423.09
2018-12-26T07:13:03.994Z,101420.91
2018-12-26T07:15:52.690Z,101428.66
2018-12-26T07:18:41.816Z,101427.63
2018-12-26T07:21:30.521Z,101437.03
2018-12-26T07:24:19.292Z,101437.73
2018-12-26T07:27:08.044Z,101449.09
2018-12-26T07:29:56.717Z,101446.73
2018-12-26T07:32:45.452Z,101449.94
2018-12-26T07:35:34.172Z,101461.91
2018-12-26T07:38:23.153Z,101452.14
2018-12-26T07:41:31.190Z,101454.24
2018-12-26T07:44:19.937Z,101457.89
2018-12-26T07:47:08.649Z,101465.65
2018-12-26T07:49:57.359Z,101471.31
2018-12-26T07:52:46.080Z,101470.02
2018-12-26T07:55:35.110Z,101473.89
2018-12-26T07:58:23.839Z,101478.66
2018-12-26T08:01:12.561Z,101483.16
2018-12-26T08:04:01.298Z,101472.38
2018-12-26T08:06:49.978Z,101470.69
2018-12-26T08:09:38.688Z,101479.94
2018-12-26T08:12:27.411Z,101481.28
2018-12-26T08:15:16.142Z,101471.37
2018-12-26T08:18:04.823Z,101471.77
2018-12-26T08:20:53.549Z,101476.17
2018-12-26T08:23:42.309Z,101475.36
2018-12-26T08:26:31.058Z,101468.16
2018-12-26T08:29:12.336Z,101468.66
2018-12-26T08:32:01.039Z,101475.34
2018-12-26T08:34:50.593Z,101472.41
2018-12-26T08:37:39.612Z,101477.61
2018-12-26T08:40:28.603Z,101469.03
2018-12-26T08:43:36.502Z,101467.77
2018-12-26T08:49:36.808Z,101465.03
2018-12-26T08:55:53.965Z,101464.65
2018-12-26T08:58:43.453Z,101461.69
2018-12-26T09:01:12.841Z,101462.41
2018-12-26T09:04:01.568Z,101470.80
2018-12-26T09:06:50.446Z,101463.27
2018-12-26T09:09:39.257Z,101455.33
2018-12-26T09:12:27.931Z,101452.55
2018-12-26T09:15:16.861Z,101447.77
2018-12-26T09:18:05.643Z,101440.18
2018-12-26T09:20:54.417Z,101443.53
2018-12-26T09:23:43.077Z,101448.17
2018-12-26T09:29:42.644Z,101443.53
2018-12-26T09:32:31.380Z,101445.62
2018-12-26T09:35:22.089Z,101443.48
2018-12-26T09:38:10.875Z,101432.23
2018-12-26T09:41:01.507Z,101437.63
2018-12-26T09:43:32.673Z,101435.70
2018-12-26T09:46:02.093Z,101434.89
2018-12-26T09:48:52.857Z,101425.69
2018-12-26T09:54:17.257Z,101425.84
2018-12-26T09:57:28.781Z,101423.70
2018-12-26T09:59:58.900Z,101425.33
2018-12-26T10:02:48.771Z,101419.57
2018-12-26T10:05:37.623Z,101419.48
2018-12-26T10:08:26.279Z,101422.00
2018-12-26T10:14:11.856Z,101412.45
2018-12-26T10:17:00.790Z,101413.69
2018-12-26T10:19:50.452Z,101412.59
2018-12-26T10:22:39.420Z,101402.97
2018-12-26T10:25:29.520Z,101407.04
2018-12-26T10:28:12.912Z,101400.52
2018-12-26T10:31:03.805Z,101402.12
2018-12-26T10:33:52.688Z,101398.72
2018-12-26T10:36:41.731Z,101411.71
2018-12-26T10:39:31.056Z,101407.87
2018-12-26T10:42:40.460Z,101400.70
2018-12-26T10:45:29.427Z,101386.93
2018-12-26T10:48:18.636Z,101389.06
2018-12-26T10:50:52.588Z,101382.46
2018-12-26T10:53:22.750Z,101379.58
2018-12-26T10:56:13.350Z,101379.51
2018-12-26T10:58:44.749Z,101371.82
2018-12-26T11:01:33.627Z,101376.31
2018-12-26T11:04:28.475Z,101369.84
2018-12-26T11:07:36.891Z,101363.02
2018-12-26T11:10:46.546Z,101372.52
2018-12-26T11:13:35.253Z,101360.67
2018-12-26T11:16:25.737Z,101367.97
2018-12-26T11:19:16.527Z,101360.73
2018-12-26T11:21:45.857Z,101352.84
2018-12-26T11:24:54.713Z,101350.77
2018-12-26T11:27:46.552Z,101357.28
2018-12-26T11:30:30.520Z,101355.67
2018-12-26T11:33:21.068Z,101352.90
2018-12-26T11:35:52.867Z,101350.34
2018-12-26T11:38:42.911Z,101348.72
2018-12-26T11:45:00.538Z,101337.14
2018-12-26T11:47:51.102Z,101335.80
2018-12-26T11:50:25.412Z,101340.49
2018-12-26T11:53:35.144Z,101337.58
2018-12-26T11:56:23.978Z,101336.19
2018-12-26T11:59:14.746Z,101327.02
2018-12-26T12:02:24.228Z,101326.84
2018-12-26T12:04:54.832Z,101329.44
2018-12-26T12:07:45.770Z,101331.63
2018-12-26T12:13:39.127Z,101330.25
2018-12-26T12:16:33.568Z,101322.17
2018-12-26T12:19:26.091Z,101332.97
2018-12-26T12:22:27.513Z,101320.66
2018-12-26T12:28:08.963Z,101326.60
2018-12-26T12:30:41.811Z,101336.50
2018-12-26T12:33:30.636Z,101326.95
2018-12-26T12:36:01.587Z,101319.56
2018-12-26T12:38:31.221Z,101314.09
2018-12-26T12:41:20.635Z,101311.54
2018-12-26T12:44:32.482Z,101308.59
2018-12-26T12:47:41.887Z,101308.98
2018-12-26T12:52:53.660Z,101310.04
2018-12-26T12:55:42.837Z,101306.22
2018-12-26T12:58:14.534Z,101301.62
2018-12-26T13:00:46.273Z,101305.81
2018-12-26T13:03:46.346Z,101300.88
2018-12-26T13:06:51.425Z,101293.49
2018-12-26T13:12:35.710Z,101289.95
2018-12-26T13:15:12.234Z,101287.00
2018-12-26T13:17:44.784Z,101288.30
2018-12-26T13:20:53.664Z,101287.11
2018-12-26T13:24:06.920Z,101287.00
2018-12-26T13:26:57.376Z,101280.84
2018-12-26T13:29:53.403Z,101279.27
2018-12-26T13:32:33.704Z,101281.74
2018-12-26T13:35:22.647Z,101271.25
2018-12-26T13:37:54.226Z,101277.14
2018-12-26T13:40:27.170Z,101277.34
2018-12-26T13:43:36.828Z,101276.49
2018-12-26T13:46:33.765Z,101279.94
2018-12-26T13:49:22.727Z,101272.27
2018-12-26T13:51:53.732Z,101272.61
2018-12-26T13:55:45.835Z,101277.25
2018-12-26T13:58:41.964Z,101277.19
2018-12-26T14:01:11.629Z,101280.08
2018-12-26T14:04:54.278Z,101278.45
2018-12-26T14:07:05.108Z,101279.88
2018-12-26T14:09:34.765Z,101282.67
2018-12-26T14:15:22.932Z,101282.45
2018-12-26T14:18:15.687Z,101284.13
2018-12-26T14:20:48.244Z,101285.27
2018-12-26T14:23:42.218Z,101283.97
2018-12-26T14:26:49.475Z,101273.48
2018-12-26T14:29:33.777Z,101269.34
2018-12-26T14:32:25.884Z,101269.05
2018-12-26T14:37:52.132Z,101262.98
2018-12-26T14:41:00.202Z,101266.39
2018-12-26T14:43:52.796Z,101258.77
2018-12-26T14:56:56.229Z,101273.55
2018-12-26T14:59:46.554Z,101273.62
2018-12-26T15:02:17.779Z,101269.73
2018-12-26T15:05:09.332Z,101268.80
2018-12-26T15:08:00.379Z,101271.39
2018-12-26T15:10:48.908Z,101278.59
2018-12-26T15:13:38.051Z,101282.53
2018-12-26T15:16:46.718Z,101274.88
2018-12-26T15:19:56.369Z,101271.32
2018-12-26T15:22:26.344Z,101272.73
2018-12-26T15:25:15.275Z,101263.92
2018-12-26T15:28:05.798Z,101266.98
2018-12-26T15:30:58.101Z,101272.34
2018-12-26T15:33:47.114Z,101271.61
2018-12-26T15:36:16.815Z,101271.41
2018-12-26T15:38:48.019Z,101275.92
2018-12-26T15:41:18.029Z,101267.80
2018-12-26T15:44:26.379Z,101266.65
2018-12-26T15:47:18.492Z,101263.87
2018-12-26T15:53:05.990Z,101258.99
2018-12-26T15:55:36.369Z,101259.36
2018-12-26T16:01:24.760Z,101252.58
2018-12-26T16:03:56.977Z,101244.41
2018-12-26T16:06:26.813Z,101238.98
2018-12-26T16:09:15.747Z,101239.94
2018-12-26T16:12:37.514Z,101242.95
2018-12-26T16:15:27.201Z,101240.58
2018-12-26T16:21:45.023Z,101237.61
2018-12-26T16:24:37.293Z,101227.66
2018-12-26T16:27:26.677Z,101234.19
2018-12-26T16:30:09.996Z,101233.41
2018-12-26T16:32:59.039Z,101234.30
2018-12-26T16:35:47.911Z,101227.83
2018-12-26T16:38:56.009Z,101226.42
2018-12-26T16:41:28.206Z,101225.20
2018-12-26T16:44:21.888Z,101219.95
2018-12-26T16:50:26.880Z,101216.98
2018-12-26T16:52:56.055Z,101217.45
2018-12-26T16:55:25.696Z,101215.26
2018-12-26T16:57:56.990Z,101214.78
2018-12-26T17:00:45.864Z,101203.83
2018-12-26T17:03:34.758Z,101202.83
2018-12-26T17:06:23.607Z,101207.64
2018-12-26T17:09:13.177Z,101206.63
2018-12-26T17:14:55.641Z,101212.72
2018-12-26T17:17:44.758Z,101210.71
2018-12-26T17:20:14.941Z,101213.72
2018-12-26T17:23:04.103Z,101220.41
2018-12-26T17:25:33.548Z,101221.84
2018-12-26T17:28:26.125Z,101221.69
2018-12-26T17:31:14.944Z,101220.55
2018-12-26T17:34:04.163Z,101222.67
2018-12-26T17:36:52.930Z,101221.23
2018-12-26T17:39:41.898Z,101224.30
2018-12-26T17:42:30.660Z,101220.94
2018-12-26T17:45:38.956Z,101214.69
2018-12-26T17:48:27.676Z,101217.28
2018-12-26T17:51:16.594Z,101214.00
2018-12-26T17:53:53.575Z,101222.00
2018-12-26T17:56:27.609Z,101226.79
2018-12-26T17:59:37.181Z,101231.30
2018-12-26T18:02:46.846Z,101227.92
2018-12-26T18:05:35.566Z,101225.59
2018-12-26T18:08:24.365Z,101226.44
2018-12-26T18:11:13.604Z,101227.94
2018-12-26T18:13:42.984Z,101230.60
2018-12-26T18:16:31.676Z,101231.23
2018-12-26T18:19:20.397Z,101226.59
2018-12-26T18:22:09.115Z,101220.66
2018-12-26T18:24:38.835Z,101225.27
2018-12-26T18:27:27.684Z,101217.59
2018-12-26T18:30:09.025Z,101208.77
2018-12-26T18:33:01.334Z,101212.13
2018-12-26T18:35:31.151Z,101210.17
2018-12-26T18:38:19.878Z,101208.08
2018-12-26T18:41:08.587Z,101205.03
2018-12-26T18:43:57.334Z,101201.95
2018-12-26T18:46:46.387Z,101201.95
2018-12-26T18:49:35.098Z,101197.27
2018-12-26T18:52:23.805Z,101191.48
2018-12-26T18:55:12.538Z,101186.33
2018-12-26T18:58:01.244Z,101190.19
2018-12-26T19:03:44.683Z,101194.34
2018-12-26T19:06:33.389Z,101196.31
2018-12-26T19:09:22.107Z,101196.94
2018-12-26T19:12:10.845Z,101186.75
2018-12-26T19:14:40.733Z,101193.33
2018-12-26T19:17:29.434Z,101190.91
2018-12-26T19:20:18.485Z,101188.08
2018-12-26T19:23:07.192Z,101189.59
2018-12-26T19:25:55.908Z,101190.94
2018-12-26T19:28:44.629Z,101194.92
2018-12-26T19:31:39.475Z,101192.84
2018-12-26T19:34:23.773Z,101190.08
2018-12-26T19:37:12.496Z,101190.08
2018-12-26T19:42:55.482Z,101183.89
2018-12-26T19:45:44.254Z,101181.33
2018-12-26T19:48:13.942Z,101189.06
2018-12-26T19:51:02.671Z,101190.23
2018-12-26T19:53:51.392Z,101194.48
2018-12-26T19:56:20.771Z,101186.80
2018-12-26T19:59:09.877Z,101187.11
2018-12-26T20:01:58.811Z,101186.97
2018-12-26T20:04:47.529Z,101178.52
2018-12-26T20:07:36.241Z,101186.27
2018-12-26T20:10:24.973Z,101179.62
2018-12-26T20:13:13.694Z,101178.05
2018-12-26T20:16:02.418Z,101184.23
2018-12-26T20:18:51.143Z,101175.38
2018-12-26T20:21:39.933Z,101175.31
2018-12-26T20:24:28.638Z,101172.78
2018-12-26T20:27:17.347Z,101169.80
2018-12-26T20:29:58.550Z,101161.44
2018-12-26T20:32:47.282Z,101167.15
2018-12-26T20:35:35.986Z,101165.17
2018-12-26T20:38:24.701Z,101168.78
2018-12-26T20:41:13.469Z,101164.64
2018-12-26T20:43:42.801Z,101165.03
2018-12-26T20:46:18.444Z,101166.04
2018-12-26T20:49:07.171Z,101161.10
2018-12-26T20:51:55.897Z,101159.91
2018-12-26T20:54:44.611Z,101160.30
2018-12-26T20:57:33.347Z,101155.36
2018-12-26T21:00:22.135Z,101155.98
2018-12-26T21:03:10.875Z,101146.05
2018-12-26T21:06:00.568Z,101147.46
2018-12-26T21:08:49.584Z,101143.41
2018-12-26T21:11:38.572Z,101139.01
2018-12-26T21:14:27.292Z,101136.44
2018-12-26T21:17:16.042Z,101139.89
2018-12-26T21:23:15.680Z,101130.58
2018-12-26T21:26:04.386Z,101128.98
2018-12-26T21:28:34.148Z,101123.05
2018-12-26T21:31:15.416Z,101127.48
2018-12-26T21:34:04.205Z,101118.83
2018-12-26T21:36:52.923Z,101115.55
2018-12-26T21:39:41.640Z,101113.92
2018-12-26T21:42:30.363Z,101114.08
2018-12-26T21:45:19.065Z,101115.06
2018-12-26T21:48:07.777Z,101115.36
2018-12-26T21:50:56.490Z,101106.43
2018-12-26T21:53:45.208Z,101118.45
2018-12-26T21:56:33.912Z,101117.08
2018-12-26T21:59:22.625Z,101108.59
2018-12-26T22:02:11.390Z,101103.77
2018-12-26T22:05:00.159Z,101102.83
2018-12-26T22:07:49.130Z,101097.66
2018-12-26T22:10:37.833Z,101094.81
2018-12-26T22:13:26.570Z,101099.23
2018-12-26T22:16:15.295Z,101096.09
2018-12-26T22:21:59.168Z,101092.16
2018-12-26T22:24:47.886Z,101098.12
2018-12-26T22:27:36.931Z,101100.84
2018-12-26T22:30:18.241Z,101086.36
2018-12-26T22:33:06.953Z,101087.77
2018-12-26T22:35:55.671Z,101096.43
2018-12-26T22:38:44.681Z,101092.51
2018-12-26T22:41:33.412Z,101091.63
2018-12-26T22:44:27.684Z,101090.70
2018-12-26T22:47:12.593Z,101086.21
2018-12-26T22:50:01.375Z,101085.68
2018-12-26T22:52:50.083Z,101088.09
2018-12-26T22:55:38.799Z,101085.91
2018-12-26T22:58:27.820Z,101089.02
2018-12-26T23:01:16.527Z,101076.59
2018-12-26T23:04:05.320Z,101077.72
2018-12-26T23:06:35.591Z,101082.80
2018-12-26T23:09:24.899Z,101079.03
2018-12-26T23:12:13.595Z,101078.09
2018-12-26T23:15:02.318Z,101079.16
2018-12-26T23:17:51.032Z,101078.97
2018-12-26T23:20:39.761Z,101070.78
2018-12-26T23:23:29.216Z,101072.18
2018-12-26T23:26:17.947Z,101072.08
2018-12-26T23:28:59.522Z,101065.49
2018-12-26T23:31:48.225Z,101066.49
2018-12-26T23:37:30.974Z,101076.90
2018-12-26T23:40:19.681Z,101065.16
2018-12-26T23:43:08.487Z,101069.39
2018-12-26T23:45:57.181Z,101061.33
2018-12-26T23:48:46.175Z,101057.20
2018-12-26T23:51:34.879Z,101054.16
2018-12-26T23:54:23.594Z,101050.86
2018-12-26T23:57:12.340Z,101056.88
